地図

経路データ

SID SEASON NUMBER BASIN SUBBASIN NAME ISO_TIME NATURE LAT LON WMO_WIND WMO_PRES WMO_AGENCY TRACK_TYPE DIST2LAND LANDFALL IFLAG USA_AGENCY USA_ATCF_ID USA_LAT USA_LON USA_RECORD USA_STATUS USA_WIND USA_PRES USA_SSHS USA_R34_NE USA_R34_SE USA_R34_SW USA_R34_NW USA_R50_NE USA_R50_SE USA_R50_SW USA_R50_NW USA_R64_NE USA_R64_SE USA_R64_SW USA_R64_NW USA_POCI USA_ROCI USA_RMW USA_EYE TOKYO_LAT TOKYO_LON TOKYO_GRADE TOKYO_WIND TOKYO_PRES TOKYO_R50_DIR TOKYO_R50_LONG TOKYO_R50_SHORT TOKYO_R30_DIR TOKYO_R30_LONG TOKYO_R30_SHORT TOKYO_LAND CMA_LAT CMA_LON CMA_CAT CMA_WIND CMA_PRES HKO_LAT HKO_LON HKO_CAT HKO_WIND HKO_PRES NEWDELHI_LAT NEWDELHI_LON NEWDELHI_GRADE NEWDELHI_WIND NEWDELHI_PRES NEWDELHI_CI NEWDELHI_DP NEWDELHI_POCI REUNION_LAT REUNION_LON REUNION_TYPE REUNION_WIND REUNION_PRES REUNION_TNUM REUNION_CI REUNION_RMW REUNION_R34_NE REUNION_R34_SE REUNION_R34_SW REUNION_R34_NW REUNION_R50_NE REUNION_R50_SE REUNION_R50_SW REUNION_R50_NW REUNION_R64_NE REUNION_R64_SE REUNION_R64_SW REUNION_R64_NW BOM_LAT BOM_LON BOM_TYPE BOM_WIND BOM_PRES BOM_TNUM BOM_CI BOM_RMW BOM_R34_NE BOM_R34_SE BOM_R34_SW BOM_R34_NW BOM_R50_NE BOM_R50_SE BOM_R50_SW BOM_R50_NW BOM_R64_NE BOM_R64_SE BOM_R64_SW BOM_R64_NW BOM_ROCI BOM_POCI BOM_EYE BOM_POS_METHOD BOM_PRES_METHOD NADI_LAT NADI_LON NADI_CAT NADI_WIND NADI_PRES WELLINGTON_LAT WELLINGTON_LON WELLINGTON_WIND WELLINGTON_PRES DS824_LAT DS824_LON DS824_STAGE DS824_WIND DS824_PRES TD9636_LAT TD9636_LON TD9636_STAGE TD9636_WIND TD9636_PRES TD9635_LAT TD9635_LON TD9635_WIND TD9635_PRES TD9635_ROCI NEUMANN_LAT NEUMANN_LON NEUMANN_CLASS NEUMANN_WIND NEUMANN_PRES MLC_LAT MLC_LON MLC_CLASS MLC_WIND MLC_PRES USA_GUST BOM_GUST BOM_GUST_PER REUNION_GUST REUNION_GUST_PER USA_SEAHGT USA_SEARAD_NE USA_SEARAD_SE USA_SEARAD_SW USA_SEARAD_NW STORM_SPEED STORM_DIR
1994294N13203 1994 104 EP CP NONA 1994-10-21 00:00:00 TS 12.8000 -157.067 30 hurdat_epa main 698 698 O_____________ hurdat_epa CP031994 12.8000 -157.300 TD 30 -1 0 0
1994294N13203 1994 104 EP CP NONA 1994-10-21 03:00:00 TS 12.8000 -157.084 main 698 698 P_____________ CP031994 12.8000 -157.300 TD 30 -1 0 270
1994294N13203 1994 104 EP CP NONA 1994-10-21 06:00:00 TS 12.8000 -157.100 30 hurdat_epa main 698 698 O_____________ hurdat_epa CP031994 12.8000 -157.300 TD 30 -1 0 270
1994294N13203 1994 104 EP CP NONA 1994-10-21 09:00:00 TS 12.8000 -157.114 main 698 698 P_____________ CP031994 12.8000 -157.300 TD 30 -1 0 270
1994294N13203 1994 104 EP CP NONA 1994-10-21 12:00:00 TS 12.8000 -157.133 30 hurdat_epa main 698 698 O_____________ hurdat_epa CP031994 12.8000 -157.300 TD 30 -1 1 270
1994294N13203 1994 104 EP CP NONA 1994-10-21 15:00:00 TS 12.8000 -157.167 main 701 701 P_____________ CP031994 12.8000 -157.300 TD 30 -1 1 270
1994294N13203 1994 104 EP CP NONA 1994-10-21 18:00:00 TS 12.8000 -157.200 30 hurdat_epa main 701 701 O_____________ hurdat_epa CP031994 12.8000 -157.300 TD 30 -1 0 270
1994294N13203 1994 104 EP CP NONA 1994-10-21 21:00:00 TS 12.8000 -157.217 main 701 701 P_____________ CP031994 12.8000 -157.300 TD 30 -1 0 270
1994294N13203 1994 104 EP CP NONA 1994-10-22 00:00:00 TS 12.8000 -157.233 30 hurdat_epa main 701 701 O_____________ hurdat_epa CP031994 12.8000 -157.300 TD 30 -1 0 270
1994294N13203 1994 104 EP CP NONA 1994-10-22 03:00:00 TS 12.8000 -157.264 main 703 703 P_____________ CP031994 12.8000 -157.300 TD 30 -1 1 270
1994294N13203 1994 104 EP CP NONA 1994-10-22 06:00:00 TS 12.8000 -157.300 30 hurdat_epa main 703 703 O_____________ hurdat_epa CP031994 12.8000 -157.300 TD 30 -1 1 270
1994294N13203 1994 104 EP CP NONA 1994-10-22 09:00:00 TS 12.8000 -157.333 main 703 703 P_____________ CP031994 12.8000 -157.300 TD 30 -1 1 270
1994294N13203 1994 104 EP CP NONA 1994-10-22 12:00:00 TS 12.8000 -157.367 30 hurdat_epa main 706 706 O_____________ hurdat_epa CP031994 12.8000 -157.300 TD 30 -1 0 270
1994294N13203 1994 104 EP CP NONA 1994-10-22 15:00:00 TS 12.8000 -157.378 main 706 706 P_____________ CP031994 12.8000 -157.270 TD 30 -1 1 270
1994294N13203 1994 104 EP CP NONA 1994-10-22 18:00:00 TS 12.8000 -157.433 30 hurdat_epa main 706 706 O_____________ hurdat_epa CP031994 12.8000 -157.300 TD 30 -1 2 272
1994294N13203 1994 104 EP CP NONA 1994-10-22 21:00:00 TS 12.8074 -157.569 main 712 712 P_____________ CP031994 12.8074 -157.440 TD 30 -1 4 270
1994294N13203 1994 104 EP CP NONA 1994-10-23 00:00:00 TS 12.8000 -157.800 30 hurdat_epa main 718 718 O_____________ hurdat_epa CP031994 12.8000 -157.700 TD 30 -1 6 266
1994294N13203 1994 104 EP CP NONA 1994-10-23 03:00:00 TS 12.7652 -158.165 main 733 733 P_____________ CP031994 12.7652 -158.130 TD 30 -1 7 262
1994294N13203 1994 104 EP CP NONA 1994-10-23 06:00:00 TS 12.7000 -158.500 30 hurdat_epa main 755 755 O_____________ hurdat_epa CP031994 12.7000 -158.500 TD 30 -1 4 247
1994294N13203 1994 104 EP CP NONA 1994-10-23 09:00:00 TS 12.5998 -158.573 main 770 770 P_____________ CP031994 12.5923 -158.485 TD 30 -1 3 220
1994294N13203 1994 104 EP CP NONA 1994-10-23 12:00:00 TS 12.5000 -158.667 30 hurdat_epa main 784 784 O_____________ hurdat_epa CP031994 12.5000 -158.500 TD 30 -1 5 253
1994294N13203 1994 104 EP CP NONA 1994-10-23 15:00:00 TS 12.4651 -159.036 main 798 798 P_____________ CP031994 12.5228 -158.940 TD 30 -1 8 263
1994294N13203 1994 104 EP CP NONA 1994-10-23 18:00:00 TS 12.4000 -159.500 30 hurdat_epa main 833 833 O_____________ hurdat_epa CP031994 12.5000 -159.500 TD 30 -1 9 252
1994294N13203 1994 104 EP CP NONA 1994-10-23 21:00:00 TS 12.2048 -159.873 main 874 874 P_____________ CP031994 12.2647 -159.885 TD 30 -1 9 243
1994294N13203 1994 104 EP CP NONA 1994-10-24 00:00:00 TS 12.0000 -160.300 30 hurdat_epa main 916 916 O_____________ hurdat_epa CP031994 12.0000 -160.300 TD 30 -1 10 251
1994294N13203 1994 104 EP CP NONA 1994-10-24 03:00:00 TS 11.8742 -160.873 main 961 961 P_____________ CP031994 11.8401 -160.885 TD 30 -1 12 262
1994294N13203 1994 104 EP CP NONA 1994-10-24 06:00:00 TS 11.8333 -161.500 30 hurdat_epa main 1008 1008 O_____________ hurdat_epa CP031994 11.8000 -161.500 TD 30 -1 11 273
1994294N13203 1994 104 EP CP NONA 1994-10-24 09:00:00 TS 11.9337 -162.035 main 1034 1032 P_____________ CP031994 11.9718 -161.939 TD 27 -1 12 278
1994294N13203 1994 104 EP CP NONA 1994-10-24 12:00:00 TS 12.0000 -162.667 25 hurdat_epa main 1076 1076 O_____________ hurdat_epa CP031994 12.1000 -162.500 TD 25 -1 15 265
1994294N13203 1994 104 EP CP NONA 1994-10-24 15:00:00 TS 11.8056 -163.589 main 1161 1161 P_____________ CP031994 11.8659 -163.493 TD 25 -1 18 257
1994294N13203 1994 104 EP CP NONA 1994-10-24 18:00:00 TS 11.6000 -164.500 25 hurdat_epa main 1246 1246 O_____________ hurdat_epa CP031994 11.6000 -164.500 TD 25 -1 15 262
1994294N13203 1994 104 EP CP NONA 1994-10-24 21:00:00 TS 11.6119 -165.082 main 1292 1292 P_____________ CP031994 11.6043 -165.095 TD 25 -1 11 275
1994294N13203 1994 104 EP CP NONA 1994-10-25 00:00:00 TS 11.7000 -165.600 25 hurdat_epa main 1307 1307 O_____________ hurdat_epa CP031994 11.7000 -165.600 TD 25 -1 12 276
1994294N13203 1994 104 EP CP NONA 1994-10-25 03:00:00 TS 11.7425 -166.278 main 1343 1339 P_____________ CP031994 11.7425 -166.278 TD 25 -1 14 274
1994294N13203 1994 104 EP CP NONA 1994-10-25 06:00:00 TS 11.8000 -167.000 25 hurdat_epa main 1373 1373 O_____________ hurdat_epa CP031994 11.8000 -167.000 TD 25 -1 14 277
1994294N13203 1994 104 EP CP NONA 1994-10-25 09:00:00 TS 11.9073 -167.692 main 1407 1407 P_____________ CP031994 11.9073 -167.692 TD 30 -1 14 278
1994294N13203 1994 104 EP CP NONA 1994-10-25 12:00:00 TS 12.0000 -168.400 35 hurdat_epa main 1444 1444 O_____________ hurdat_epa CP031994 12.0000 -168.400 TS 35 0 14 274
1994294N13203 1994 104 EP CP NONA 1994-10-25 15:00:00 TS 11.9999 -169.143 main 1492 1492 P_____________ CP031994 11.9999 -169.143 TS 32 -1 15 270
1994294N13203 1994 104 EP CP NONA 1994-10-25 18:00:00 TS 12.0000 -169.900 30 hurdat_epa main 1549 1549 O_____________ hurdat_epa CP031994 12.0000 -169.900 TD 30 -1 15 273
1994294N13203 1994 104 EP CP NONA 1994-10-25 21:00:00 TS 12.0754 -170.652 main 1601 1601 P_____________ CP031994 12.0754 -170.652 TD 27 -1 15 278
1994294N13203 1994 104 EP CP NONA 1994-10-26 00:00:00 TS 12.2000 -171.400 25 hurdat_epa main 1648 O_____________ hurdat_epa CP031994 12.2000 -171.400 TD 25 -1 15 280

IBTrACS Databaseについて

本データベースは、米国NOAAが公開する1842年以降の世界の熱帯低気圧のベストトラックデータアーカイブInternational Best Track Archive for Climate Stewardship (IBTrACS)を、ウェブで閲覧しやすい形式に変換したものです。

最終更新日:2021-12-03